sensor_id;sensor_type;location;lat;lon;timestamp;P1;durP1;ratioP1;P2;durP2;ratioP2
54307;SDS011;40208;39.778;2.710;2023-05-07T00:01:34;8.38;;;2.15;;
54307;SDS011;40208;39.778;2.710;2023-05-07T00:04:21;4.78;;;1.98;;
54307;SDS011;40208;39.778;2.710;2023-05-07T00:07:09;4.82;;;1.85;;
54307;SDS011;40208;39.778;2.710;2023-05-07T00:09:55;8.45;;;2.55;;
54307;SDS011;40208;39.778;2.710;2023-05-07T00:12:40;5.03;;;2.15;;
54307;SDS011;40208;39.778;2.710;2023-05-07T00:15:27;3.67;;;1.90;;
54307;SDS011;40208;39.778;2.710;2023-05-07T00:18:16;2.83;;;1.55;;
54307;SDS011;40208;39.778;2.710;2023-05-07T00:21:13;3.60;;;1.50;;
54307;SDS011;40208;39.778;2.710;2023-05-07T00:24:01;6.68;;;1.60;;
54307;SDS011;40208;39.778;2.710;2023-05-07T00:26:49;1.73;;;1.00;;
54307;SDS011;40208;39.778;2.710;2023-05-07T00:29:34;2.08;;;1.20;;
54307;SDS011;40208;39.778;2.710;2023-05-07T00:32:24;4.10;;;1.73;;
54307;SDS011;40208;39.778;2.710;2023-05-07T00:38:03;1.58;;;1.10;;
54307;SDS011;40208;39.778;2.710;2023-05-07T00:40:48;2.67;;;1.25;;
54307;SDS011;40208;39.778;2.710;2023-05-07T00:43:35;4.10;;;1.52;;
54307;SDS011;40208;39.778;2.710;2023-05-07T00:46:21;5.88;;;1.55;;
54307;SDS011;40208;39.778;2.710;2023-05-07T00:49:17;2.35;;;1.40;;
54307;SDS011;40208;39.778;2.710;2023-05-07T00:52:03;4.22;;;1.75;;
54307;SDS011;40208;39.778;2.710;2023-05-07T00:54:50;4.95;;;2.00;;
54307;SDS011;40208;39.778;2.710;2023-05-07T00:57:37;2.88;;;1.95;;
54307;SDS011;40208;39.778;2.710;2023-05-07T01:00:23;8.70;;;1.65;;
54307;SDS011;40208;39.778;2.710;2023-05-07T01:03:09;4.45;;;1.80;;
54307;SDS011;40208;39.778;2.710;2023-05-07T01:05:54;5.38;;;1.90;;
54307;SDS011;40208;39.778;2.710;2023-05-07T01:08:43;3.38;;;1.88;;
54307;SDS011;40208;39.778;2.710;2023-05-07T01:11:30;5.65;;;1.95;;
54307;SDS011;40208;39.778;2.710;2023-05-07T01:14:16;4.28;;;2.00;;
54307;SDS011;40208;39.778;2.710;2023-05-07T01:17:02;5.85;;;2.40;;
54307;SDS011;40208;39.778;2.710;2023-05-07T01:19:47;3.15;;;1.63;;
54307;SDS011;40208;39.778;2.710;2023-05-07T01:22:34;5.35;;;2.10;;
54307;SDS011;40208;39.778;2.710;2023-05-07T01:25:22;6.22;;;2.17;;
54307;SDS011;40208;39.778;2.710;2023-05-07T01:28:12;4.20;;;1.90;;
54307;SDS011;40208;39.778;2.710;2023-05-07T01:31:00;5.00;;;1.95;;
54307;SDS011;40208;39.778;2.710;2023-05-07T01:33:52;5.18;;;1.85;;
54307;SDS011;40208;39.778;2.710;2023-05-07T01:36:47;6.43;;;2.20;;
54307;SDS011;40208;39.778;2.710;2023-05-07T01:39:35;4.63;;;1.83;;
54307;SDS011;40208;39.778;2.710;2023-05-07T01:42:24;2.50;;;1.55;;
54307;SDS011;40208;39.778;2.710;2023-05-07T01:45:11;3.60;;;1.75;;
54307;SDS011;40208;39.778;2.710;2023-05-07T01:48:01;10.00;;;2.13;;
54307;SDS011;40208;39.778;2.710;2023-05-07T01:50:49;3.72;;;1.90;;
54307;SDS011;40208;39.778;2.710;2023-05-07T01:53:39;4.15;;;2.10;;
54307;SDS011;40208;39.778;2.710;2023-05-07T01:56:29;4.38;;;1.98;;
54307;SDS011;40208;39.778;2.710;2023-05-07T01:59:16;5.00;;;2.00;;
54307;SDS011;40208;39.778;2.710;2023-05-07T02:02:01;5.57;;;2.05;;
54307;SDS011;40208;39.778;2.710;2023-05-07T02:04:48;3.17;;;1.60;;
54307;SDS011;40208;39.778;2.710;2023-05-07T02:07:37;4.50;;;1.83;;
54307;SDS011;40208;39.778;2.710;2023-05-07T02:10:24;5.07;;;2.10;;
54307;SDS011;40208;39.778;2.710;2023-05-07T02:13:10;4.60;;;2.20;;
54307;SDS011;40208;39.778;2.710;2023-05-07T02:16:06;5.53;;;1.83;;
54307;SDS011;40208;39.778;2.710;2023-05-07T02:18:53;4.70;;;2.13;;
54307;SDS011;40208;39.778;2.710;2023-05-07T02:21:43;4.97;;;1.80;;
54307;SDS011;40208;39.778;2.710;2023-05-07T02:24:32;4.90;;;2.35;;
54307;SDS011;40208;39.778;2.710;2023-05-07T02:27:17;4.55;;;1.90;;
54307;SDS011;40208;39.778;2.710;2023-05-07T02:30:09;4.15;;;1.77;;
54307;SDS011;40208;39.778;2.710;2023-05-07T02:32:56;2.30;;;1.38;;
54307;SDS011;40208;39.778;2.710;2023-05-07T02:35:42;3.10;;;1.85;;
54307;SDS011;40208;39.778;2.710;2023-05-07T02:41:18;3.63;;;2.03;;
54307;SDS011;40208;39.778;2.710;2023-05-07T02:44:09;3.60;;;1.73;;
54307;SDS011;40208;39.778;2.710;2023-05-07T02:46:57;3.05;;;2.00;;
54307;SDS011;40208;39.778;2.710;2023-05-07T02:49:44;6.32;;;2.30;;
54307;SDS011;40208;39.778;2.710;2023-05-07T02:52:30;5.20;;;2.38;;
54307;SDS011;40208;39.778;2.710;2023-05-07T02:55:15;7.00;;;1.92;;
54307;SDS011;40208;39.778;2.710;2023-05-07T02:58:00;6.38;;;2.00;;
54307;SDS011;40208;39.778;2.710;2023-05-07T03:00:47;6.65;;;2.50;;
54307;SDS011;40208;39.778;2.710;2023-05-07T03:03:35;5.07;;;1.98;;
54307;SDS011;40208;39.778;2.710;2023-05-07T03:06:20;7.28;;;2.53;;
54307;SDS011;40208;39.778;2.710;2023-05-07T03:09:06;2.40;;;1.75;;
54307;SDS011;40208;39.778;2.710;2023-05-07T03:11:51;3.53;;;1.92;;
54307;SDS011;40208;39.778;2.710;2023-05-07T03:14:37;4.50;;;2.00;;
54307;SDS011;40208;39.778;2.710;2023-05-07T03:17:23;6.82;;;2.47;;
54307;SDS011;40208;39.778;2.710;2023-05-07T03:20:08;3.38;;;1.77;;
54307;SDS011;40208;39.778;2.710;2023-05-07T03:23:02;6.13;;;2.50;;
54307;SDS011;40208;39.778;2.710;2023-05-07T03:25:48;4.47;;;2.28;;
54307;SDS011;40208;39.778;2.710;2023-05-07T03:28:34;3.47;;;1.83;;
54307;SDS011;40208;39.778;2.710;2023-05-07T03:31:19;4.55;;;1.92;;
54307;SDS011;40208;39.778;2.710;2023-05-07T03:34:07;7.45;;;2.03;;
54307;SDS011;40208;39.778;2.710;2023-05-07T03:36:52;7.45;;;2.20;;
54307;SDS011;40208;39.778;2.710;2023-05-07T03:39:46;4.20;;;1.92;;
54307;SDS011;40208;39.778;2.710;2023-05-07T03:42:32;4.82;;;1.90;;
54307;SDS011;40208;39.778;2.710;2023-05-07T03:45:25;2.92;;;1.70;;
54307;SDS011;40208;39.778;2.710;2023-05-07T03:48:13;5.32;;;2.22;;
54307;SDS011;40208;39.778;2.710;2023-05-07T03:50:58;5.05;;;1.70;;
54307;SDS011;40208;39.778;2.710;2023-05-07T03:53:51;3.08;;;1.77;;
54307;SDS011;40208;39.778;2.710;2023-05-07T03:56:39;2.55;;;1.52;;
54307;SDS011;40208;39.778;2.710;2023-05-07T03:59:25;4.07;;;1.80;;
54307;SDS011;40208;39.778;2.710;2023-05-07T04:02:11;4.38;;;2.08;;
54307;SDS011;40208;39.778;2.710;2023-05-07T04:05:00;5.68;;;2.10;;
54307;SDS011;40208;39.778;2.710;2023-05-07T04:07:47;4.00;;;2.15;;
54307;SDS011;40208;39.778;2.710;2023-05-07T04:10:43;4.90;;;2.03;;
54307;SDS011;40208;39.778;2.710;2023-05-07T04:13:33;8.30;;;2.13;;
54307;SDS011;40208;39.778;2.710;2023-05-07T04:16:18;7.15;;;3.15;;
54307;SDS011;40208;39.778;2.710;2023-05-07T04:19:05;7.72;;;2.35;;
54307;SDS011;40208;39.778;2.710;2023-05-07T04:21:53;5.13;;;2.45;;
54307;SDS011;40208;39.778;2.710;2023-05-07T04:24:38;5.57;;;2.55;;
54307;SDS011;40208;39.778;2.710;2023-05-07T04:27:25;6.57;;;2.33;;
54307;SDS011;40208;39.778;2.710;2023-05-07T04:30:12;7.45;;;2.22;;
54307;SDS011;40208;39.778;2.710;2023-05-07T04:32:59;4.75;;;1.90;;
54307;SDS011;40208;39.778;2.710;2023-05-07T04:35:48;4.57;;;2.45;;
54307;SDS011;40208;39.778;2.710;2023-05-07T04:38:38;6.93;;;2.30;;
54307;SDS011;40208;39.778;2.710;2023-05-07T04:41:24;2.95;;;2.22;;
54307;SDS011;40208;39.778;2.710;2023-05-07T04:44:11;8.38;;;1.80;;
54307;SDS011;40208;39.778;2.710;2023-05-07T04:46:57;5.55;;;2.15;;
54307;SDS011;40208;39.778;2.710;2023-05-07T04:49:46;6.85;;;1.90;;
54307;SDS011;40208;39.778;2.710;2023-05-07T04:52:38;5.45;;;2.13;;
54307;SDS011;40208;39.778;2.710;2023-05-07T04:55:27;4.10;;;2.08;;
54307;SDS011;40208;39.778;2.710;2023-05-07T04:58:16;7.82;;;2.47;;
54307;SDS011;40208;39.778;2.710;2023-05-07T05:01:01;3.72;;;2.28;;
54307;SDS011;40208;39.778;2.710;2023-05-07T05:03:46;23.23;;;2.53;;
54307;SDS011;40208;39.778;2.710;2023-05-07T05:06:34;8.13;;;3.30;;
54307;SDS011;40208;39.778;2.710;2023-05-07T05:09:21;19.85;;;2.30;;
54307;SDS011;40208;39.778;2.710;2023-05-07T05:12:14;6.07;;;2.08;;
54307;SDS011;40208;39.778;2.710;2023-05-07T05:14:59;5.35;;;2.38;;
54307;SDS011;40208;39.778;2.710;2023-05-07T05:17:46;14.25;;;2.83;;
54307;SDS011;40208;39.778;2.710;2023-05-07T05:20:33;9.25;;;2.65;;
54307;SDS011;40208;39.778;2.710;2023-05-07T05:23:20;10.38;;;2.50;;
54307;SDS011;40208;39.778;2.710;2023-05-07T05:26:06;10.55;;;2.53;;
54307;SDS011;40208;39.778;2.710;2023-05-07T05:28:54;4.63;;;2.17;;
54307;SDS011;40208;39.778;2.710;2023-05-07T05:31:39;7.95;;;2.47;;
54307;SDS011;40208;39.778;2.710;2023-05-07T05:34:31;6.20;;;2.47;;
54307;SDS011;40208;39.778;2.710;2023-05-07T05:37:19;9.27;;;3.28;;
54307;SDS011;40208;39.778;2.710;2023-05-07T05:40:08;7.13;;;3.25;;
54307;SDS011;40208;39.778;2.710;2023-05-07T05:42:55;7.60;;;3.20;;
54307;SDS011;40208;39.778;2.710;2023-05-07T05:45:40;30.42;;;3.95;;
54307;SDS011;40208;39.778;2.710;2023-05-07T05:48:25;11.75;;;2.90;;
54307;SDS011;40208;39.778;2.710;2023-05-07T05:51:10;22.08;;;3.30;;
54307;SDS011;40208;39.778;2.710;2023-05-07T05:53:57;9.50;;;2.88;;
54307;SDS011;40208;39.778;2.710;2023-05-07T05:56:42;6.53;;;2.67;;
54307;SDS011;40208;39.778;2.710;2023-05-07T05:59:28;10.68;;;3.28;;
54307;SDS011;40208;39.778;2.710;2023-05-07T06:02:13;6.65;;;2.40;;
54307;SDS011;40208;39.778;2.710;2023-05-07T06:05:00;5.45;;;2.17;;
54307;SDS011;40208;39.778;2.710;2023-05-07T06:07:49;8.15;;;2.28;;
54307;SDS011;40208;39.778;2.710;2023-05-07T06:10:37;7.55;;;2.13;;
54307;SDS011;40208;39.778;2.710;2023-05-07T06:13:23;8.40;;;2.47;;
54307;SDS011;40208;39.778;2.710;2023-05-07T06:16:10;6.30;;;2.15;;
54307;SDS011;40208;39.778;2.710;2023-05-07T06:18:58;7.18;;;2.67;;
54307;SDS011;40208;39.778;2.710;2023-05-07T06:21:42;5.28;;;1.95;;
54307;SDS011;40208;39.778;2.710;2023-05-07T06:24:27;12.38;;;2.10;;
54307;SDS011;40208;39.778;2.710;2023-05-07T06:27:13;5.70;;;2.17;;
54307;SDS011;40208;39.778;2.710;2023-05-07T06:30:03;8.88;;;2.15;;
54307;SDS011;40208;39.778;2.710;2023-05-07T06:32:51;5.55;;;2.08;;
54307;SDS011;40208;39.778;2.710;2023-05-07T06:35:45;4.68;;;2.03;;
54307;SDS011;40208;39.778;2.710;2023-05-07T06:38:30;6.03;;;2.38;;
54307;SDS011;40208;39.778;2.710;2023-05-07T06:41:22;5.00;;;2.20;;
54307;SDS011;40208;39.778;2.710;2023-05-07T06:44:15;3.65;;;2.33;;
54307;SDS011;40208;39.778;2.710;2023-05-07T06:47:02;9.20;;;2.10;;
54307;SDS011;40208;39.778;2.710;2023-05-07T06:49:49;4.13;;;2.40;;
54307;SDS011;40208;39.778;2.710;2023-05-07T06:52:42;4.93;;;2.15;;
54307;SDS011;40208;39.778;2.710;2023-05-07T06:55:27;13.73;;;2.88;;
54307;SDS011;40208;39.778;2.710;2023-05-07T06:58:12;2.60;;;1.90;;
54307;SDS011;40208;39.778;2.710;2023-05-07T07:00:59;4.03;;;2.10;;
54307;SDS011;40208;39.778;2.710;2023-05-07T07:03:45;3.05;;;2.35;;
54307;SDS011;40208;39.778;2.710;2023-05-07T07:06:32;5.78;;;2.10;;
54307;SDS011;40208;39.778;2.710;2023-05-07T07:12:08;3.55;;;1.73;;
54307;SDS011;40208;39.778;2.710;2023-05-07T07:14:57;2.97;;;1.73;;
54307;SDS011;40208;39.778;2.710;2023-05-07T07:17:49;4.40;;;1.80;;
54307;SDS011;40208;39.778;2.710;2023-05-07T07:20:39;4.53;;;1.40;;
54307;SDS011;40208;39.778;2.710;2023-05-07T07:23:27;2.95;;;1.83;;
54307;SDS011;40208;39.778;2.710;2023-05-07T07:26:14;4.55;;;2.03;;
54307;SDS011;40208;39.778;2.710;2023-05-07T07:28:59;1.95;;;1.20;;
54307;SDS011;40208;39.778;2.710;2023-05-07T07:31:50;4.50;;;2.40;;
54307;SDS011;40208;39.778;2.710;2023-05-07T07:34:39;6.97;;;3.58;;
54307;SDS011;40208;39.778;2.710;2023-05-07T07:37:28;3.42;;;2.40;;
54307;SDS011;40208;39.778;2.710;2023-05-07T07:40:18;6.30;;;2.60;;
54307;SDS011;40208;39.778;2.710;2023-05-07T07:43:03;4.13;;;2.10;;
54307;SDS011;40208;39.778;2.710;2023-05-07T07:45:54;5.32;;;2.15;;
54307;SDS011;40208;39.778;2.710;2023-05-07T07:48:40;2.30;;;1.50;;
54307;SDS011;40208;39.778;2.710;2023-05-07T07:51:25;1.25;;;1.15;;
54307;SDS011;40208;39.778;2.710;2023-05-07T07:54:11;10.77;;;4.85;;
54307;SDS011;40208;39.778;2.710;2023-05-07T07:56:58;10.50;;;4.28;;
54307;SDS011;40208;39.778;2.710;2023-05-07T07:59:43;5.95;;;2.75;;
54307;SDS011;40208;39.778;2.710;2023-05-07T08:02:31;5.93;;;2.13;;
54307;SDS011;40208;39.778;2.710;2023-05-07T08:05:21;4.28;;;2.05;;
54307;SDS011;40208;39.778;2.710;2023-05-07T08:10:57;5.60;;;2.28;;
54307;SDS011;40208;39.778;2.710;2023-05-07T08:13:46;5.93;;;2.30;;
54307;SDS011;40208;39.778;2.710;2023-05-07T08:16:44;7.35;;;2.55;;
54307;SDS011;40208;39.778;2.710;2023-05-07T08:19:31;6.25;;;3.00;;
54307;SDS011;40208;39.778;2.710;2023-05-07T08:22:19;4.32;;;2.33;;
54307;SDS011;40208;39.778;2.710;2023-05-07T08:25:12;5.85;;;2.50;;
54307;SDS011;40208;39.778;2.710;2023-05-07T08:27:59;11.77;;;2.47;;
54307;SDS011;40208;39.778;2.710;2023-05-07T08:30:51;7.15;;;2.25;;
54307;SDS011;40208;39.778;2.710;2023-05-07T08:33:39;3.97;;;1.85;;
54307;SDS011;40208;39.778;2.710;2023-05-07T08:36:26;6.45;;;2.42;;
54307;SDS011;40208;39.778;2.710;2023-05-07T08:39:17;5.10;;;2.05;;
54307;SDS011;40208;39.778;2.710;2023-05-07T08:42:04;4.13;;;2.60;;
54307;SDS011;40208;39.778;2.710;2023-05-07T08:45:04;13.23;;;4.40;;
54307;SDS011;40208;39.778;2.710;2023-05-07T08:48:01;23.38;;;11.50;;
54307;SDS011;40208;39.778;2.710;2023-05-07T08:50:51;22.92;;;12.48;;
54307;SDS011;40208;39.778;2.710;2023-05-07T08:53:45;17.88;;;9.65;;
54307;SDS011;40208;39.778;2.710;2023-05-07T08:56:34;13.48;;;5.15;;
54307;SDS011;40208;39.778;2.710;2023-05-07T08:59:22;9.07;;;3.53;;
54307;SDS011;40208;39.778;2.710;2023-05-07T09:02:12;11.25;;;5.20;;
54307;SDS011;40208;39.778;2.710;2023-05-07T09:05:03;16.38;;;5.50;;
54307;SDS011;40208;39.778;2.710;2023-05-07T09:07:54;7.50;;;4.40;;
54307;SDS011;40208;39.778;2.710;2023-05-07T09:10:41;8.05;;;3.63;;
54307;SDS011;40208;39.778;2.710;2023-05-07T09:13:30;5.68;;;2.40;;
54307;SDS011;40208;39.778;2.710;2023-05-07T09:16:25;3.08;;;1.88;;
54307;SDS011;40208;39.778;2.710;2023-05-07T09:19:11;2.25;;;1.35;;
54307;SDS011;40208;39.778;2.710;2023-05-07T09:22:03;6.75;;;1.90;;
54307;SDS011;40208;39.778;2.710;2023-05-07T09:24:53;4.97;;;2.10;;
54307;SDS011;40208;39.778;2.710;2023-05-07T09:27:43;3.00;;;1.50;;
54307;SDS011;40208;39.778;2.710;2023-05-07T09:30:28;17.35;;;3.58;;
54307;SDS011;40208;39.778;2.710;2023-05-07T09:33:20;24.25;;;3.83;;
54307;SDS011;40208;39.778;2.710;2023-05-07T09:36:09;20.52;;;3.40;;
54307;SDS011;40208;39.778;2.710;2023-05-07T09:38:55;6.80;;;1.80;;
54307;SDS011;40208;39.778;2.710;2023-05-07T09:41:44;13.48;;;2.70;;
54307;SDS011;40208;39.778;2.710;2023-05-07T09:44:43;7.53;;;2.78;;
54307;SDS011;40208;39.778;2.710;2023-05-07T09:47:30;9.98;;;3.17;;
54307;SDS011;40208;39.778;2.710;2023-05-07T09:50:28;6.72;;;2.15;;
54307;SDS011;40208;39.778;2.710;2023-05-07T09:53:23;10.75;;;2.47;;
54307;SDS011;40208;39.778;2.710;2023-05-07T09:56:15;9.68;;;2.38;;
54307;SDS011;40208;39.778;2.710;2023-05-07T09:59:08;7.35;;;1.90;;
54307;SDS011;40208;39.778;2.710;2023-05-07T10:02:03;5.75;;;2.00;;
54307;SDS011;40208;39.778;2.710;2023-05-07T10:04:57;5.38;;;1.83;;
54307;SDS011;40208;39.778;2.710;2023-05-07T10:07:53;2.55;;;1.70;;
54307;SDS011;40208;39.778;2.710;2023-05-07T10:10:39;9.63;;;1.85;;
54307;SDS011;40208;39.778;2.710;2023-05-07T10:13:25;5.68;;;2.03;;
54307;SDS011;40208;39.778;2.710;2023-05-07T10:16:11;5.20;;;1.98;;
54307;SDS011;40208;39.778;2.710;2023-05-07T10:18:59;11.90;;;2.45;;
54307;SDS011;40208;39.778;2.710;2023-05-07T10:21:50;7.60;;;2.00;;
54307;SDS011;40208;39.778;2.710;2023-05-07T10:24:46;10.02;;;2.28;;
54307;SDS011;40208;39.778;2.710;2023-05-07T10:27:38;4.35;;;1.80;;
54307;SDS011;40208;39.778;2.710;2023-05-07T10:33:32;5.88;;;2.17;;
54307;SDS011;40208;39.778;2.710;2023-05-07T10:36:22;9.68;;;2.10;;
54307;SDS011;40208;39.778;2.710;2023-05-07T10:39:08;8.15;;;2.20;;
54307;SDS011;40208;39.778;2.710;2023-05-07T10:42:12;7.43;;;2.22;;
54307;SDS011;40208;39.778;2.710;2023-05-07T10:45:11;5.30;;;1.80;;
54307;SDS011;40208;39.778;2.710;2023-05-07T10:48:12;7.40;;;1.90;;
54307;SDS011;40208;39.778;2.710;2023-05-07T10:57:32;4.50;;;1.83;;
54307;SDS011;40208;39.778;2.710;2023-05-07T11:03:25;5.03;;;1.80;;
54307;SDS011;40208;39.778;2.710;2023-05-07T11:06:27;5.47;;;1.83;;
54307;SDS011;40208;39.778;2.710;2023-05-07T11:09:22;7.38;;;1.95;;
54307;SDS011;40208;39.778;2.710;2023-05-07T11:15:36;5.00;;;1.80;;
54307;SDS011;40208;39.778;2.710;2023-05-07T11:18:53;9.02;;;1.90;;
54307;SDS011;40208;39.778;2.710;2023-05-07T11:21:42;7.10;;;1.90;;
54307;SDS011;40208;39.778;2.710;2023-05-07T11:24:40;6.40;;;1.80;;
54307;SDS011;40208;39.778;2.710;2023-05-07T11:27:34;5.78;;;1.55;;
54307;SDS011;40208;39.778;2.710;2023-05-07T11:30:21;6.50;;;1.95;;
54307;SDS011;40208;39.778;2.710;2023-05-07T11:33:16;6.50;;;1.40;;
54307;SDS011;40208;39.778;2.710;2023-05-07T11:36:05;4.68;;;1.70;;
54307;SDS011;40208;39.778;2.710;2023-05-07T11:38:54;3.55;;;1.45;;
54307;SDS011;40208;39.778;2.710;2023-05-07T11:41:46;5.72;;;1.52;;
54307;SDS011;40208;39.778;2.710;2023-05-07T11:44:45;6.72;;;1.50;;
54307;SDS011;40208;39.778;2.710;2023-05-07T11:47:32;4.18;;;1.73;;
54307;SDS011;40208;39.778;2.710;2023-05-07T11:50:21;5.03;;;1.80;;
54307;SDS011;40208;39.778;2.710;2023-05-07T11:53:10;8.15;;;2.10;;
54307;SDS011;40208;39.778;2.710;2023-05-07T11:56:12;6.90;;;1.70;;
54307;SDS011;40208;39.778;2.710;2023-05-07T11:59:09;5.75;;;2.30;;
54307;SDS011;40208;39.778;2.710;2023-05-07T12:01:59;8.40;;;1.90;;
54307;SDS011;40208;39.778;2.710;2023-05-07T12:04:48;6.60;;;1.63;;
54307;SDS011;40208;39.778;2.710;2023-05-07T12:07:39;5.90;;;1.60;;
54307;SDS011;40208;39.778;2.710;2023-05-07T12:10:29;7.97;;;2.45;;
54307;SDS011;40208;39.778;2.710;2023-05-07T12:13:22;11.75;;;1.83;;
54307;SDS011;40208;39.778;2.710;2023-05-07T12:16:13;5.38;;;1.85;;
54307;SDS011;40208;39.778;2.710;2023-05-07T12:18:59;5.55;;;1.73;;
54307;SDS011;40208;39.778;2.710;2023-05-07T12:21:51;3.22;;;1.30;;
54307;SDS011;40208;39.778;2.710;2023-05-07T12:24:44;4.72;;;1.80;;
54307;SDS011;40208;39.778;2.710;2023-05-07T12:27:38;6.40;;;2.20;;
54307;SDS011;40208;39.778;2.710;2023-05-07T12:30:25;11.70;;;2.20;;
54307;SDS011;40208;39.778;2.710;2023-05-07T12:33:10;18.80;;;2.20;;
54307;SDS011;40208;39.778;2.710;2023-05-07T12:36:05;6.05;;;1.80;;
54307;SDS011;40208;39.778;2.710;2023-05-07T12:38:57;11.48;;;2.40;;
54307;SDS011;40208;39.778;2.710;2023-05-07T12:47:36;4.88;;;1.70;;
54307;SDS011;40208;39.778;2.710;2023-05-07T12:50:31;5.75;;;1.60;;
54307;SDS011;40208;39.778;2.710;2023-05-07T12:53:27;8.50;;;2.10;;
54307;SDS011;40208;39.778;2.710;2023-05-07T12:56:15;4.90;;;1.88;;
54307;SDS011;40208;39.778;2.710;2023-05-07T12:59:07;5.18;;;1.58;;
54307;SDS011;40208;39.778;2.710;2023-05-07T13:01:54;4.35;;;1.73;;
54307;SDS011;40208;39.778;2.710;2023-05-07T13:04:40;6.13;;;2.00;;
54307;SDS011;40208;39.778;2.710;2023-05-07T13:07:27;5.78;;;1.95;;
54307;SDS011;40208;39.778;2.710;2023-05-07T13:10:21;4.80;;;1.73;;
54307;SDS011;40208;39.778;2.710;2023-05-07T13:13:10;6.97;;;1.98;;
54307;SDS011;40208;39.778;2.710;2023-05-07T13:15:58;13.57;;;2.10;;
54307;SDS011;40208;39.778;2.710;2023-05-07T13:18:45;5.88;;;1.88;;
54307;SDS011;40208;39.778;2.710;2023-05-07T13:21:34;7.47;;;1.85;;
54307;SDS011;40208;39.778;2.710;2023-05-07T13:24:24;4.57;;;1.85;;
54307;SDS011;40208;39.778;2.710;2023-05-07T13:27:14;6.72;;;1.90;;
54307;SDS011;40208;39.778;2.710;2023-05-07T13:30:12;5.57;;;1.90;;
54307;SDS011;40208;39.778;2.710;2023-05-07T13:32:59;5.05;;;1.60;;
54307;SDS011;40208;39.778;2.710;2023-05-07T13:35:58;5.97;;;1.83;;
54307;SDS011;40208;39.778;2.710;2023-05-07T13:38:49;5.72;;;2.08;;
54307;SDS011;40208;39.778;2.710;2023-05-07T13:41:35;4.45;;;1.55;;
54307;SDS011;40208;39.778;2.710;2023-05-07T13:44:27;6.93;;;1.85;;
54307;SDS011;40208;39.778;2.710;2023-05-07T13:47:12;5.78;;;2.33;;
54307;SDS011;40208;39.778;2.710;2023-05-07T13:50:07;6.47;;;2.25;;
54307;SDS011;40208;39.778;2.710;2023-05-07T13:53:01;11.45;;;2.10;;
54307;SDS011;40208;39.778;2.710;2023-05-07T13:55:52;3.85;;;1.60;;
54307;SDS011;40208;39.778;2.710;2023-05-07T13:58:43;5.37;;;1.83;;
54307;SDS011;40208;39.778;2.710;2023-05-07T14:01:29;4.68;;;1.83;;
54307;SDS011;40208;39.778;2.710;2023-05-07T14:04:27;7.07;;;2.05;;
54307;SDS011;40208;39.778;2.710;2023-05-07T14:07:12;7.32;;;1.60;;
54307;SDS011;40208;39.778;2.710;2023-05-07T14:09:59;5.50;;;1.88;;
54307;SDS011;40208;39.778;2.710;2023-05-07T14:12:49;6.35;;;1.75;;
54307;SDS011;40208;39.778;2.710;2023-05-07T14:15:42;4.90;;;1.80;;
54307;SDS011;40208;39.778;2.710;2023-05-07T14:18:41;8.57;;;2.05;;
54307;SDS011;40208;39.778;2.710;2023-05-07T14:21:29;6.32;;;1.67;;
54307;SDS011;40208;39.778;2.710;2023-05-07T14:24:52;6.25;;;1.83;;
54307;SDS011;40208;39.778;2.710;2023-05-07T14:27:45;11.52;;;2.65;;
54307;SDS011;40208;39.778;2.710;2023-05-07T14:30:31;3.85;;;1.80;;
54307;SDS011;40208;39.778;2.710;2023-05-07T14:33:29;6.07;;;1.60;;
54307;SDS011;40208;39.778;2.710;2023-05-07T14:36:48;5.70;;;1.83;;
54307;SDS011;40208;39.778;2.710;2023-05-07T14:39:48;5.88;;;1.90;;
54307;SDS011;40208;39.778;2.710;2023-05-07T14:42:37;6.13;;;1.98;;
54307;SDS011;40208;39.778;2.710;2023-05-07T14:45:29;5.55;;;1.80;;
54307;SDS011;40208;39.778;2.710;2023-05-07T14:48:19;4.95;;;1.92;;
54307;SDS011;40208;39.778;2.710;2023-05-07T14:51:06;8.00;;;2.33;;
54307;SDS011;40208;39.778;2.710;2023-05-07T14:54:29;8.85;;;2.17;;
54307;SDS011;40208;39.778;2.710;2023-05-07T14:57:18;5.57;;;1.80;;
54307;SDS011;40208;39.778;2.710;2023-05-07T15:00:12;4.95;;;2.08;;
54307;SDS011;40208;39.778;2.710;2023-05-07T15:03:07;4.75;;;1.80;;
54307;SDS011;40208;39.778;2.710;2023-05-07T15:05:59;6.07;;;2.20;;
54307;SDS011;40208;39.778;2.710;2023-05-07T15:08:56;7.35;;;1.92;;
54307;SDS011;40208;39.778;2.710;2023-05-07T15:11:48;8.45;;;1.90;;
54307;SDS011;40208;39.778;2.710;2023-05-07T15:14:34;7.97;;;1.90;;
54307;SDS011;40208;39.778;2.710;2023-05-07T15:17:23;6.23;;;2.80;;
54307;SDS011;40208;39.778;2.710;2023-05-07T15:20:13;5.20;;;2.00;;
54307;SDS011;40208;39.778;2.710;2023-05-07T15:22:58;8.20;;;2.00;;
54307;SDS011;40208;39.778;2.710;2023-05-07T15:25:46;5.93;;;2.10;;
54307;SDS011;40208;39.778;2.710;2023-05-07T15:28:33;3.57;;;1.97;;
54307;SDS011;40208;39.778;2.710;2023-05-07T15:31:19;6.80;;;2.28;;
54307;SDS011;40208;39.778;2.710;2023-05-07T15:34:14;8.30;;;2.47;;
54307;SDS011;40208;39.778;2.710;2023-05-07T15:37:09;6.03;;;1.98;;
54307;SDS011;40208;39.778;2.710;2023-05-07T15:40:03;5.88;;;1.95;;
54307;SDS011;40208;39.778;2.710;2023-05-07T15:49:12;5.60;;;1.80;;
54307;SDS011;40208;39.778;2.710;2023-05-07T15:52:07;7.57;;;2.20;;
54307;SDS011;40208;39.778;2.710;2023-05-07T15:54:58;9.25;;;2.00;;
54307;SDS011;40208;39.778;2.710;2023-05-07T15:57:50;4.47;;;2.13;;
54307;SDS011;40208;39.778;2.710;2023-05-07T16:00:42;8.98;;;1.90;;
54307;SDS011;40208;39.778;2.710;2023-05-07T16:03:41;3.97;;;1.70;;
54307;SDS011;40208;39.778;2.710;2023-05-07T16:06:28;9.68;;;2.28;;
54307;SDS011;40208;39.778;2.710;2023-05-07T16:09:15;6.35;;;1.90;;
54307;SDS011;40208;39.778;2.710;2023-05-07T16:12:00;7.50;;;1.88;;
54307;SDS011;40208;39.778;2.710;2023-05-07T16:14:52;5.57;;;2.00;;
54307;SDS011;40208;39.778;2.710;2023-05-07T16:17:44;6.38;;;1.60;;
54307;SDS011;40208;39.778;2.710;2023-05-07T16:20:34;7.07;;;2.30;;
54307;SDS011;40208;39.778;2.710;2023-05-07T16:23:19;6.25;;;1.90;;
54307;SDS011;40208;39.778;2.710;2023-05-07T16:26:15;8.43;;;2.00;;
54307;SDS011;40208;39.778;2.710;2023-05-07T16:29:05;14.43;;;2.53;;
54307;SDS011;40208;39.778;2.710;2023-05-07T16:31:53;6.57;;;2.17;;
54307;SDS011;40208;39.778;2.710;2023-05-07T16:34:54;6.57;;;2.10;;
54307;SDS011;40208;39.778;2.710;2023-05-07T16:37:43;6.80;;;1.95;;
54307;SDS011;40208;39.778;2.710;2023-05-07T16:40:38;6.03;;;1.80;;
54307;SDS011;40208;39.778;2.710;2023-05-07T16:43:24;4.47;;;1.70;;
54307;SDS011;40208;39.778;2.710;2023-05-07T16:46:18;9.40;;;2.38;;
54307;SDS011;40208;39.778;2.710;2023-05-07T16:49:09;6.90;;;2.38;;
54307;SDS011;40208;39.778;2.710;2023-05-07T16:52:02;9.88;;;2.80;;
54307;SDS011;40208;39.778;2.710;2023-05-07T16:54:52;13.35;;;2.40;;
54307;SDS011;40208;39.778;2.710;2023-05-07T16:57:47;16.00;;;2.60;;
54307;SDS011;40208;39.778;2.710;2023-05-07T17:00:39;6.13;;;2.47;;
54307;SDS011;40208;39.778;2.710;2023-05-07T17:03:30;6.15;;;2.80;;
54307;SDS011;40208;39.778;2.710;2023-05-07T17:09:08;13.68;;;2.90;;
54307;SDS011;40208;39.778;2.710;2023-05-07T17:11:57;11.00;;;2.63;;
54307;SDS011;40208;39.778;2.710;2023-05-07T17:14:46;11.98;;;2.60;;
54307;SDS011;40208;39.778;2.710;2023-05-07T17:17:42;9.82;;;2.35;;
54307;SDS011;40208;39.778;2.710;2023-05-07T17:20:41;16.00;;;2.85;;
54307;SDS011;40208;39.778;2.710;2023-05-07T17:23:34;8.85;;;2.17;;
54307;SDS011;40208;39.778;2.710;2023-05-07T17:26:32;6.88;;;2.67;;
54307;SDS011;40208;39.778;2.710;2023-05-07T17:29:35;9.68;;;3.53;;
54307;SDS011;40208;39.778;2.710;2023-05-07T17:32:34;13.23;;;3.38;;
54307;SDS011;40208;39.778;2.710;2023-05-07T17:35:54;7.82;;;3.25;;
54307;SDS011;40208;39.778;2.710;2023-05-07T17:38:50;15.05;;;3.10;;
54307;SDS011;40208;39.778;2.710;2023-05-07T17:41:37;9.00;;;3.38;;
54307;SDS011;40208;39.778;2.710;2023-05-07T17:44:27;8.93;;;3.17;;